createdAt,value
2023-08-11T00:00:00.958Z,0
2023-08-11T00:01:17.253Z,0
2023-08-11T00:02:33.594Z,0
2023-08-11T00:03:49.831Z,0
2023-08-11T00:05:06.173Z,0
2023-08-11T00:06:22.420Z,0
2023-08-11T00:07:38.711Z,0
2023-08-11T00:08:55.013Z,0
2023-08-11T00:10:11.349Z,0
2023-08-11T00:11:27.635Z,0
2023-08-11T00:12:43.887Z,0
2023-08-11T00:14:00.219Z,0
2023-08-11T00:15:15.520Z,0
2023-08-11T00:16:31.813Z,0
2023-08-11T00:17:48.106Z,0
2023-08-11T00:19:04.371Z,0
2023-08-11T00:20:20.658Z,0
2023-08-11T00:21:36.987Z,0
2023-08-11T00:22:53.245Z,0
2023-08-11T00:24:09.571Z,0
2023-08-11T00:25:25.825Z,0
2023-08-11T00:26:42.116Z,0
2023-08-11T00:27:58.462Z,0
2023-08-11T00:29:14.740Z,0
2023-08-11T00:30:31.000Z,0
2023-08-11T00:31:46.346Z,0
2023-08-11T00:33:02.605Z,0
2023-08-11T00:34:18.942Z,0
2023-08-11T00:35:35.196Z,0
2023-08-11T00:36:51.514Z,0
2023-08-11T00:38:07.776Z,0
2023-08-11T00:39:24.110Z,0
2023-08-11T00:40:40.351Z,0
2023-08-11T00:41:56.647Z,0
2023-08-11T00:43:12.948Z,0
2023-08-11T00:44:29.240Z,0
2023-08-11T00:45:45.539Z,0
2023-08-11T00:47:01.862Z,0
2023-08-11T00:48:17.137Z,0
2023-08-11T00:49:33.431Z,0
2023-08-11T00:50:49.714Z,0
2023-08-11T00:52:06.011Z,0
2023-08-11T00:53:22.341Z,0
2023-08-11T00:54:38.638Z,0
2023-08-11T00:55:54.893Z,0
2023-08-11T00:57:11.230Z,0
2023-08-11T00:58:27.488Z,0
2023-08-11T00:59:43.772Z,0
2023-08-11T01:01:00.100Z,0
2023-08-11T01:02:16.345Z,0
2023-08-11T01:03:32.647Z,0
2023-08-11T01:04:49.104Z,0
2023-08-11T01:06:05.351Z,0
2023-08-11T01:07:21.682Z,0
2023-08-11T01:08:37.942Z,0
2023-08-11T01:09:54.270Z,0
2023-08-11T01:11:10.572Z,0
2023-08-11T01:12:26.818Z,0
2023-08-11T01:13:43.116Z,0
2023-08-11T01:14:59.408Z,0
2023-08-11T01:16:15.691Z,0
2023-08-11T01:17:31.980Z,0
2023-08-11T01:18:48.275Z,0
2023-08-11T01:20:04.567Z,0
2023-08-11T01:21:19.928Z,0
2023-08-11T01:22:36.224Z,0
2023-08-11T01:23:52.464Z,0
2023-08-11T01:25:08.759Z,0
2023-08-11T01:26:25.050Z,0
2023-08-11T01:27:41.382Z,0
2023-08-11T01:28:57.646Z,0
2023-08-11T01:30:13.932Z,0
2023-08-11T01:31:30.226Z,0
2023-08-11T01:32:46.510Z,0
2023-08-11T01:34:02.862Z,0
2023-08-11T01:35:19.105Z,0
2023-08-11T01:36:35.394Z,0
2023-08-11T01:37:51.846Z,0
2023-08-11T01:39:08.103Z,0
2023-08-11T01:40:24.437Z,0
2023-08-11T01:41:40.692Z,0
2023-08-11T01:42:56.974Z,0
2023-08-11T01:44:13.274Z,0
2023-08-11T01:45:29.563Z,0
2023-08-11T01:46:45.860Z,0
2023-08-11T01:48:02.154Z,0
2023-08-11T01:49:18.448Z,0
2023-08-11T01:50:34.730Z,0
2023-08-11T01:51:51.043Z,0
2023-08-11T01:53:07.321Z,0
2023-08-11T01:54:22.626Z,0
2023-08-11T01:55:38.925Z,0
2023-08-11T01:56:55.223Z,0
2023-08-11T01:58:11.549Z,0
2023-08-11T01:59:27.846Z,0
2023-08-11T02:00:44.105Z,0
2023-08-11T02:02:00.000Z,0
2023-08-11T02:03:16.686Z,0
2023-08-11T02:04:32.970Z,0
2023-08-11T02:05:49.275Z,0
2023-08-11T02:07:05.559Z,0
2023-08-11T02:08:21.850Z,0
2023-08-11T02:09:38.156Z,0
2023-08-11T02:10:54.604Z,0
2023-08-11T02:12:10.895Z,0
2023-08-11T02:13:27.148Z,0
2023-08-11T02:14:43.439Z,0
2023-08-11T02:15:59.743Z,0
2023-08-11T02:17:16.081Z,0
2023-08-11T02:18:32.323Z,0
2023-08-11T02:19:48.656Z,0
2023-08-11T02:21:04.951Z,0
2023-08-11T02:22:21.207Z,0
2023-08-11T02:23:37.534Z,0
2023-08-11T02:24:53.783Z,0
2023-08-11T02:26:10.086Z,0
2023-08-11T02:27:25.431Z,0
2023-08-11T02:28:41.678Z,0
2023-08-11T02:29:58.026Z,0
2023-08-11T02:31:14.276Z,0
2023-08-11T02:32:30.559Z,0
2023-08-11T02:33:46.864Z,0
2023-08-11T02:35:03.189Z,0
2023-08-11T02:36:19.447Z,0
2023-08-11T02:37:35.745Z,0
2023-08-11T02:38:52.027Z,0
2023-08-11T02:40:08.335Z,0
2023-08-11T02:41:24.612Z,0
2023-08-11T02:42:40.906Z,0
2023-08-11T02:43:56.226Z,0
2023-08-11T02:45:12.561Z,0
2023-08-11T02:46:28.845Z,0
2023-08-11T02:47:45.101Z,0
2023-08-11T02:49:01.442Z,0
2023-08-11T02:50:17.691Z,0
2023-08-11T02:51:33.984Z,0
2023-08-11T02:52:50.315Z,0
2023-08-11T02:54:06.571Z,0
2023-08-11T02:55:22.000Z,0
2023-08-11T02:56:39.217Z,0
2023-08-11T02:57:55.503Z,0
2023-08-11T02:59:11.738Z,0
2023-08-11T03:00:27.047Z,0
2023-08-11T03:01:43.342Z,0
2023-08-11T03:02:59.628Z,0
2023-08-11T03:04:15.920Z,0
2023-08-11T03:05:32.225Z,0
2023-08-11T03:06:48.556Z,0
2023-08-11T03:08:04.807Z,0
2023-08-11T03:09:21.148Z,0
2023-08-11T03:10:37.438Z,0
2023-08-11T03:11:53.735Z,0
2023-08-11T03:13:09.974Z,0
2023-08-11T03:14:26.274Z,0
2023-08-11T03:15:42.564Z,0
2023-08-11T03:16:58.926Z,1
2023-08-11T03:18:15.221Z,0
2023-08-11T03:19:31.553Z,0
2023-08-11T03:20:47.757Z,1
2023-08-11T03:22:04.007Z,1
2023-08-11T03:23:20.296Z,0
2023-08-11T03:24:36.592Z,0
2023-08-11T03:25:52.880Z,0
2023-08-11T03:27:09.176Z,1
2023-08-11T03:28:25.430Z,0
2023-08-11T03:29:41.674Z,2
2023-08-11T03:30:57.964Z,1
2023-08-11T03:32:14.154Z,4
2023-08-11T03:33:29.463Z,2
2023-08-11T03:34:45.655Z,1
2023-08-11T03:36:01.939Z,4
2023-08-11T03:37:18.183Z,4
2023-08-11T03:38:34.378Z,3
2023-08-11T03:39:50.666Z,5
2023-08-11T03:41:06.905Z,4
2023-08-11T03:42:23.095Z,10
2023-08-11T03:43:39.329Z,13
2023-08-11T03:44:55.618Z,16
2023-08-11T03:46:11.855Z,18
2023-08-11T03:47:28.054Z,18
2023-08-11T03:48:44.332Z,25
2023-08-11T03:49:59.542Z,28
2023-08-11T03:51:15.795Z,32
2023-08-11T03:52:32.031Z,34
2023-08-11T03:53:48.255Z,38
2023-08-11T03:55:04.498Z,41
2023-08-11T03:56:20.739Z,49
2023-08-11T03:57:36.002Z,48
2023-08-11T03:58:52.244Z,59
2023-08-11T04:00:08.524Z,62
2023-08-11T04:01:24.731Z,64
2023-08-11T04:02:41.000Z,71
2023-08-11T04:03:57.253Z,77
2023-08-11T04:05:13.431Z,84
2023-08-11T04:06:29.678Z,92
2023-08-11T04:07:45.911Z,99
2023-08-11T04:09:02.161Z,107
2023-08-11T04:10:18.444Z,113
2023-08-11T04:11:34.680Z,120
2023-08-11T04:12:50.922Z,127
2023-08-11T04:14:06.125Z,135
2023-08-11T04:15:22.375Z,142
2023-08-11T04:16:38.658Z,149
2023-08-11T04:17:54.887Z,153
2023-08-11T04:19:11.086Z,159
2023-08-11T04:20:27.326Z,158
2023-08-11T04:21:43.556Z,162
2023-08-11T04:22:59.802Z,168
2023-08-11T04:24:16.039Z,179
2023-08-11T04:25:32.325Z,183
2023-08-11T04:26:48.520Z,189
2023-08-11T04:28:04.761Z,200
2023-08-11T04:29:21.046Z,213
2023-08-11T04:30:36.252Z,204
2023-08-11T04:31:52.491Z,211
2023-08-11T04:33:08.745Z,222
2023-08-11T04:34:24.966Z,227
2023-08-11T04:35:41.217Z,231
2023-08-11T04:36:57.446Z,240
2023-08-11T04:38:13.685Z,247
2023-08-11T04:39:29.986Z,250
2023-08-11T04:40:46.218Z,259
2023-08-11T04:42:02.403Z,263
2023-08-11T04:43:18.649Z,268
2023-08-11T04:44:34.897Z,271
2023-08-11T04:45:51.123Z,275
2023-08-11T04:47:06.382Z,285
2023-08-11T04:48:22.616Z,289
2023-08-11T04:49:38.911Z,297
2023-08-11T04:50:55.095Z,305
2023-08-11T04:52:11.384Z,307
2023-08-11T04:53:27.574Z,315
2023-08-11T04:54:43.821Z,315
2023-08-11T04:56:00.063Z,318
2023-08-11T04:57:16.304Z,321
2023-08-11T04:58:32.535Z,327
2023-08-11T04:59:48.828Z,333
2023-08-11T05:01:05.010Z,336
2023-08-11T05:02:21.265Z,341
2023-08-11T05:03:36.508Z,348
2023-08-11T05:04:52.753Z,350
2023-08-11T05:06:08.989Z,352
2023-08-11T05:07:25.291Z,358
2023-08-11T05:08:41.463Z,357
2023-08-11T05:09:57.718Z,359
2023-08-11T05:11:13.954Z,368
2023-08-11T05:12:30.239Z,370
2023-08-11T05:13:46.423Z,373
2023-08-11T05:15:02.674Z,377
2023-08-11T05:16:18.902Z,377
2023-08-11T05:17:35.150Z,379
2023-08-11T05:18:51.436Z,383
2023-08-11T05:20:06.646Z,387
2023-08-11T05:21:22.922Z,392
2023-08-11T05:22:39.113Z,398
2023-08-11T05:23:55.410Z,396
2023-08-11T05:25:11.596Z,396
2023-08-11T05:26:27.878Z,405
2023-08-11T05:27:44.067Z,403
2023-08-11T05:29:00.361Z,402
2023-08-11T05:30:16.596Z,407
2023-08-11T05:31:32.793Z,410
2023-08-11T05:32:49.032Z,411
2023-08-11T05:34:05.275Z,415
2023-08-11T05:35:21.553Z,418
2023-08-11T05:36:36.766Z,423
2023-08-11T05:37:53.003Z,416
2023-08-11T05:39:09.285Z,426
2023-08-11T05:40:25.475Z,427
2023-08-11T05:41:41.779Z,431
2023-08-11T05:42:58.004Z,435
2023-08-11T05:44:14.194Z,436
2023-08-11T05:45:30.440Z,433
2023-08-11T05:46:46.668Z,438
2023-08-11T05:48:02.924Z,439
2023-08-11T05:49:19.155Z,444
2023-08-11T05:50:35.394Z,443
2023-08-11T05:51:51.677Z,445
2023-08-11T05:53:06.884Z,449
2023-08-11T05:54:23.122Z,443
2023-08-11T05:55:39.373Z,449
2023-08-11T05:56:55.653Z,458
2023-08-11T05:58:11.848Z,464
2023-08-11T05:59:28.081Z,465
2023-08-11T06:00:44.368Z,473
2023-08-11T06:02:00.608Z,465
2023-08-11T06:03:16.846Z,469
2023-08-11T06:04:33.090Z,469
2023-08-11T06:05:49.277Z,470
2023-08-11T06:07:05.512Z,470
2023-08-11T06:08:21.757Z,467
2023-08-11T06:09:37.013Z,466
2023-08-11T06:10:53.243Z,466
2023-08-11T06:12:09.483Z,466
2023-08-11T06:13:25.726Z,462
2023-08-11T06:14:41.956Z,461
2023-08-11T06:15:58.204Z,457
2023-08-11T06:17:14.431Z,455
2023-08-11T06:18:30.669Z,457
2023-08-11T06:19:46.922Z,459
2023-08-11T06:21:03.163Z,450
2023-08-11T06:22:19.386Z,458
2023-08-11T06:23:35.629Z,447
2023-08-11T06:24:51.867Z,448
2023-08-11T06:26:07.127Z,454
2023-08-11T06:27:23.360Z,453
2023-08-11T06:28:39.602Z,455
2023-08-11T06:29:55.846Z,447
2023-08-11T06:31:12.083Z,450
2023-08-11T06:32:28.324Z,449
2023-08-11T06:33:44.558Z,452
2023-08-11T06:35:00.806Z,455
2023-08-11T06:36:17.044Z,452
2023-08-11T06:37:33.280Z,456
2023-08-11T06:38:49.505Z,453
2023-08-11T06:40:05.762Z,449
2023-08-11T06:41:21.984Z,450
2023-08-11T06:42:38.361Z,455
2023-08-11T06:43:54.582Z,448
2023-08-11T06:45:10.829Z,446
2023-08-11T06:46:27.072Z,448
2023-08-11T06:47:43.315Z,440
2023-08-11T06:48:59.547Z,438
2023-08-11T06:50:15.776Z,442
2023-08-11T06:51:32.015Z,444
2023-08-11T06:52:48.270Z,442
2023-08-11T06:54:04.505Z,442
2023-08-11T06:55:20.738Z,438
2023-08-11T06:56:36.983Z,436
2023-08-11T06:57:53.218Z,437
2023-08-11T06:59:08.474Z,441
2023-08-11T07:00:24.713Z,437
2023-08-11T07:01:40.951Z,432
2023-08-11T07:02:57.194Z,432
2023-08-11T07:04:13.425Z,434
2023-08-11T07:05:29.663Z,437
2023-08-11T07:06:45.902Z,435
2023-08-11T07:08:02.144Z,435
2023-08-11T07:09:18.372Z,435
2023-08-11T07:10:34.622Z,433
2023-08-11T07:11:50.851Z,438
2023-08-11T07:13:07.093Z,436
2023-08-11T07:14:23.329Z,437
2023-08-11T07:15:38.593Z,435
2023-08-11T07:16:54.825Z,436
2023-08-11T07:18:11.058Z,438
2023-08-11T07:19:27.298Z,441
2023-08-11T07:20:43.550Z,437
2023-08-11T07:21:59.779Z,438
2023-08-11T07:23:16.030Z,439
2023-08-11T07:24:32.269Z,440
2023-08-11T07:25:48.504Z,440
2023-08-11T07:27:04.736Z,440
2023-08-11T07:28:20.971Z,436
2023-08-11T07:29:37.209Z,442
2023-08-11T07:30:53.443Z,444
2023-08-11T07:32:08.706Z,442
2023-08-11T07:33:24.958Z,441
2023-08-11T07:34:41.182Z,440
2023-08-11T07:35:57.421Z,445
2023-08-11T07:37:13.660Z,447
2023-08-11T07:38:29.899Z,446
2023-08-11T07:39:46.137Z,449
2023-08-11T07:41:02.375Z,445
2023-08-11T07:42:18.619Z,449
2023-08-11T07:43:34.843Z,448
2023-08-11T07:44:51.091Z,452
2023-08-11T07:46:07.329Z,449
2023-08-11T07:47:23.572Z,452
2023-08-11T07:48:38.826Z,452
2023-08-11T07:49:55.058Z,452
2023-08-11T07:51:11.310Z,455
2023-08-11T07:52:27.541Z,453
2023-08-11T07:53:43.778Z,450
2023-08-11T07:55:00.025Z,451
2023-08-11T07:56:16.253Z,456
2023-08-11T07:57:32.489Z,453
2023-08-11T07:58:48.739Z,457
2023-08-11T08:00:04.966Z,454
2023-08-11T08:01:21.213Z,456
2023-08-11T08:02:37.459Z,461
2023-08-11T08:03:53.682Z,467
2023-08-11T08:05:08.951Z,465
2023-08-11T08:06:25.172Z,465
2023-08-11T08:07:41.436Z,466
2023-08-11T08:08:57.652Z,465
2023-08-11T08:10:13.908Z,470
2023-08-11T08:11:30.141Z,463
2023-08-11T08:12:45.406Z,463
2023-08-11T08:14:01.646Z,466
2023-08-11T08:15:17.881Z,475
2023-08-11T08:16:34.117Z,471
2023-08-11T08:17:50.343Z,473
2023-08-11T08:19:06.609Z,473
2023-08-11T08:20:22.821Z,476
2023-08-11T08:21:39.062Z,482
2023-08-11T08:22:55.298Z,476
2023-08-11T08:24:11.556Z,481
2023-08-11T08:25:27.781Z,482
2023-08-11T08:26:44.020Z,480
2023-08-11T08:28:00.274Z,476
2023-08-11T08:29:15.513Z,479
2023-08-11T08:30:31.770Z,483
2023-08-11T08:31:47.998Z,488
2023-08-11T08:33:04.235Z,488
2023-08-11T08:34:20.476Z,484
2023-08-11T08:35:36.719Z,490
2023-08-11T08:36:52.955Z,492
2023-08-11T08:38:09.194Z,491
2023-08-11T08:39:25.430Z,491
2023-08-11T08:40:41.675Z,500
2023-08-11T08:41:57.902Z,504
2023-08-11T08:43:14.155Z,502
2023-08-11T08:44:30.383Z,507
2023-08-11T08:45:45.643Z,511
2023-08-11T08:47:01.879Z,509
2023-08-11T08:48:18.118Z,514
2023-08-11T08:49:34.354Z,514
2023-08-11T08:50:50.000Z,511
2023-08-11T08:52:06.845Z,517
2023-08-11T08:53:23.088Z,520
2023-08-11T08:54:39.336Z,522
2023-08-11T08:55:55.563Z,526
2023-08-11T08:57:11.806Z,518
2023-08-11T08:58:28.032Z,515
2023-08-11T08:59:44.272Z,523
2023-08-11T09:01:00.522Z,530
2023-08-11T09:02:15.787Z,526
2023-08-11T09:03:32.010Z,530
2023-08-11T09:04:48.246Z,531
2023-08-11T09:06:04.481Z,545
2023-08-11T09:07:20.733Z,535
2023-08-11T09:08:36.975Z,546
2023-08-11T09:09:53.219Z,548
2023-08-11T09:11:09.437Z,547
2023-08-11T09:12:25.691Z,548
2023-08-11T09:13:41.929Z,555
2023-08-11T09:14:58.172Z,557
2023-08-11T09:16:14.404Z,555
2023-08-11T09:17:30.631Z,563
2023-08-11T09:18:45.898Z,555
2023-08-11T09:20:02.151Z,560
2023-08-11T09:21:18.378Z,564
2023-08-11T09:22:34.623Z,565
2023-08-11T09:23:50.872Z,567
2023-08-11T09:25:07.086Z,567
2023-08-11T09:26:23.327Z,569
2023-08-11T09:27:39.569Z,575
2023-08-11T09:28:55.000Z,573
2023-08-11T09:30:12.047Z,575
2023-08-11T09:31:28.291Z,577
2023-08-11T09:32:44.541Z,582
2023-08-11T09:34:00.756Z,588
2023-08-11T09:35:16.024Z,589
2023-08-11T09:36:32.254Z,593
2023-08-11T09:37:48.501Z,598
2023-08-11T09:39:04.731Z,601
2023-08-11T09:40:20.986Z,603
2023-08-11T09:41:37.216Z,607
2023-08-11T09:42:53.466Z,618
2023-08-11T09:44:09.687Z,616
2023-08-11T09:45:25.930Z,618
2023-08-11T09:46:42.189Z,630
2023-08-11T09:47:58.424Z,626
2023-08-11T09:49:14.666Z,630
2023-08-11T09:50:30.901Z,638
2023-08-11T09:51:46.144Z,639
2023-08-11T09:53:02.400Z,643
2023-08-11T09:54:18.637Z,648
2023-08-11T09:55:34.863Z,652
2023-08-11T09:56:51.102Z,666
2023-08-11T09:58:07.349Z,657
2023-08-11T09:59:23.602Z,669
2023-08-11T10:00:39.839Z,679
2023-08-11T10:01:56.062Z,682
2023-08-11T10:03:12.318Z,685
2023-08-11T10:04:28.560Z,700
2023-08-11T10:05:44.780Z,701
2023-08-11T10:07:01.026Z,705
2023-08-11T10:08:16.308Z,716
2023-08-11T10:09:32.518Z,712
2023-08-11T10:10:48.760Z,724
2023-08-11T10:12:04.000Z,738
2023-08-11T10:13:21.252Z,743
2023-08-11T10:14:37.504Z,757
2023-08-11T10:15:53.725Z,754
2023-08-11T10:17:09.987Z,748
2023-08-11T10:18:26.212Z,756
2023-08-11T10:19:42.443Z,795
2023-08-11T10:20:58.699Z,819
2023-08-11T10:22:14.923Z,898
2023-08-11T10:23:31.161Z,957
2023-08-11T10:24:46.430Z,1046
2023-08-11T10:26:02.667Z,1029
2023-08-11T10:27:18.908Z,1322
2023-08-11T10:28:35.152Z,1838
2023-08-11T10:29:51.377Z,2052
2023-08-11T10:31:07.622Z,2160
2023-08-11T10:32:23.860Z,2249
2023-08-11T10:33:40.114Z,2341
2023-08-11T10:34:56.359Z,2415
2023-08-11T10:36:12.590Z,2500
2023-08-11T10:37:28.828Z,2576
2023-08-11T10:38:45.066Z,2614
2023-08-11T10:40:01.316Z,2658
2023-08-11T10:41:17.678Z,2723
2023-08-11T10:42:33.907Z,2755
2023-08-11T10:43:50.143Z,2826
2023-08-11T10:45:06.386Z,2889
2023-08-11T10:46:22.617Z,2925
2023-08-11T10:47:38.874Z,2958
2023-08-11T10:48:55.101Z,2986
2023-08-11T10:50:11.351Z,3031
2023-08-11T10:51:27.578Z,3063
2023-08-11T10:52:43.816Z,3103
2023-08-11T10:54:00.070Z,3134
2023-08-11T10:55:16.311Z,3141
2023-08-11T10:56:32.534Z,3158
2023-08-11T10:57:47.795Z,3181
2023-08-11T10:59:04.038Z,3230
2023-08-11T11:00:20.282Z,3245
2023-08-11T11:01:36.524Z,3283
2023-08-11T11:02:52.763Z,3279
2023-08-11T11:04:08.988Z,3309
2023-08-11T11:05:25.238Z,3325
2023-08-11T11:06:41.478Z,3351
2023-08-11T11:07:57.711Z,3384
2023-08-11T11:09:13.951Z,3392
2023-08-11T11:10:30.196Z,3395
2023-08-11T11:11:46.450Z,3410
2023-08-11T11:13:02.676Z,3415
2023-08-11T11:14:19.041Z,3421
2023-08-11T11:15:35.258Z,3440
2023-08-11T11:16:51.508Z,3455
2023-08-11T11:18:07.741Z,3441
2023-08-11T11:19:23.988Z,3509
2023-08-11T11:20:40.234Z,3534
2023-08-11T11:21:56.457Z,3592
2023-08-11T11:23:12.704Z,3647
2023-08-11T11:24:28.933Z,3693
2023-08-11T11:25:45.180Z,3734
2023-08-11T11:27:01.423Z,3776
2023-08-11T11:28:17.669Z,3810
2023-08-11T11:29:33.000Z,3858
2023-08-11T11:30:49.148Z,3893
2023-08-11T11:32:05.395Z,3909
2023-08-11T11:33:21.633Z,3943
2023-08-11T11:34:37.862Z,3991
2023-08-11T11:35:54.097Z,4049
2023-08-11T11:37:10.362Z,4112
2023-08-11T11:38:26.603Z,4127
2023-08-11T11:39:42.845Z,4190
2023-08-11T11:40:59.073Z,4269
2023-08-11T11:42:15.000Z,4348
2023-08-11T11:43:31.541Z,4411
2023-08-11T11:44:47.781Z,4449
2023-08-11T11:46:04.026Z,4503
2023-08-11T11:47:20.380Z,4625
2023-08-11T11:48:36.603Z,4657
2023-08-11T11:49:52.861Z,4664
2023-08-11T11:51:09.088Z,4739
2023-08-11T11:52:25.341Z,4787
2023-08-11T11:53:41.566Z,4850
2023-08-11T11:54:57.822Z,4908
2023-08-11T11:56:14.046Z,4963
2023-08-11T11:57:30.289Z,4977
2023-08-11T11:58:46.509Z,5030
2023-08-11T12:00:02.753Z,5050
2023-08-11T12:01:18.994Z,5112
2023-08-11T12:02:35.228Z,5162
2023-08-11T12:03:50.480Z,5164
2023-08-11T12:05:06.732Z,5224
2023-08-11T12:06:22.958Z,5267
2023-08-11T12:07:39.219Z,5319
2023-08-11T12:08:55.440Z,5371
2023-08-11T12:10:11.674Z,5394
2023-08-11T12:11:27.930Z,5439
2023-08-11T12:12:44.151Z,5493
2023-08-11T12:14:00.399Z,5543
2023-08-11T12:15:16.640Z,5577
2023-08-11T12:16:32.874Z,5608
2023-08-11T12:17:49.103Z,5635
2023-08-11T12:19:05.359Z,5670
2023-08-11T12:20:20.601Z,5717
2023-08-11T12:21:36.852Z,5750
2023-08-11T12:22:53.079Z,5809
2023-08-11T12:24:09.327Z,5791
2023-08-11T12:25:25.551Z,5836
2023-08-11T12:26:41.789Z,5865
2023-08-11T12:27:58.166Z,5835
2023-08-11T12:29:14.404Z,5919
2023-08-11T12:30:30.640Z,5913
2023-08-11T12:31:46.870Z,5957
2023-08-11T12:33:03.114Z,5994
2023-08-11T12:34:19.348Z,6045
2023-08-11T12:35:35.000Z,6008
2023-08-11T12:36:51.843Z,6051
2023-08-11T12:38:08.065Z,6041
2023-08-11T12:39:24.320Z,6076
2023-08-11T12:40:40.566Z,6127
2023-08-11T12:41:56.788Z,6145
2023-08-11T12:43:13.028Z,6122
2023-08-11T12:44:28.315Z,6171
2023-08-11T12:45:44.530Z,6183
2023-08-11T12:47:00.759Z,6197
2023-08-11T12:48:17.006Z,6220
2023-08-11T12:49:33.243Z,6238
2023-08-11T12:50:49.493Z,6250
2023-08-11T12:52:05.728Z,6284
2023-08-11T12:53:21.972Z,6296
2023-08-11T12:54:38.202Z,6275
2023-08-11T12:55:54.436Z,6307
2023-08-11T12:57:10.682Z,6326
2023-08-11T12:58:26.000Z,6338
2023-08-11T12:59:43.166Z,6352
2023-08-11T13:00:58.414Z,6351
2023-08-11T13:02:14.651Z,6198
2023-08-11T13:03:30.887Z,6329
2023-08-11T13:04:47.125Z,6296
2023-08-11T13:06:03.000Z,6282
2023-08-11T13:07:19.600Z,6268
2023-08-11T13:08:35.841Z,6273
2023-08-11T13:09:52.091Z,6276
2023-08-11T13:11:08.336Z,6257
2023-08-11T13:12:24.563Z,6256
2023-08-11T13:13:40.808Z,6247
2023-08-11T13:14:57.047Z,6249
2023-08-11T13:16:13.000Z,6239
2023-08-11T13:17:28.549Z,6250
2023-08-11T13:18:44.784Z,6252
2023-08-11T13:20:01.013Z,6238
2023-08-11T13:21:17.253Z,6212
2023-08-11T13:22:33.492Z,6213
2023-08-11T13:23:49.751Z,6223
2023-08-11T13:25:05.973Z,6201
2023-08-11T13:26:22.225Z,6218
2023-08-11T13:27:38.455Z,6150
2023-08-11T13:28:54.698Z,6124
2023-08-11T13:30:10.926Z,6095
2023-08-11T13:31:27.194Z,6098
2023-08-11T13:32:43.411Z,6089
2023-08-11T13:33:58.682Z,6102
2023-08-11T13:35:14.931Z,6078
2023-08-11T13:36:31.144Z,6085
2023-08-11T13:37:47.394Z,6074
2023-08-11T13:39:03.000Z,6062
2023-08-11T13:40:19.865Z,6075
2023-08-11T13:41:36.122Z,6089
2023-08-11T13:42:52.362Z,6128
2023-08-11T13:44:08.000Z,6159
2023-08-11T13:45:24.824Z,6168
2023-08-11T13:46:41.094Z,6172
2023-08-11T13:47:57.300Z,6180
2023-08-11T13:49:13.552Z,6167
2023-08-11T13:50:28.800Z,6203
2023-08-11T13:51:45.032Z,6223
2023-08-11T13:53:01.278Z,6239
2023-08-11T13:54:17.526Z,6258
2023-08-11T13:55:33.760Z,6327
2023-08-11T13:56:50.004Z,6273
2023-08-11T13:58:06.234Z,6267
2023-08-11T13:59:22.506Z,6323
2023-08-11T14:00:38.718Z,6316
2023-08-11T14:01:54.000Z,6329
2023-08-11T14:03:11.203Z,6337
2023-08-11T14:04:27.000Z,6341
2023-08-11T14:05:43.695Z,6345
2023-08-11T14:06:58.961Z,6360
2023-08-11T14:08:15.199Z,6368
2023-08-11T14:09:31.411Z,6375
2023-08-11T14:10:47.653Z,6369
2023-08-11T14:12:03.918Z,6356
2023-08-11T14:13:20.127Z,6379
2023-08-11T14:14:36.405Z,6388
2023-08-11T14:15:52.618Z,6337
2023-08-11T14:17:08.880Z,6359
2023-08-11T14:18:25.104Z,6397
2023-08-11T14:19:41.352Z,6417
2023-08-11T14:20:57.580Z,6446
2023-08-11T14:22:13.812Z,6446
2023-08-11T14:23:29.064Z,6440
2023-08-11T14:24:45.319Z,6483
2023-08-11T14:26:01.573Z,6518
2023-08-11T14:27:17.782Z,6552
2023-08-11T14:28:34.049Z,6596
2023-08-11T14:29:50.262Z,6650
2023-08-11T14:31:06.538Z,6687
2023-08-11T14:32:22.771Z,6763
2023-08-11T14:33:38.993Z,6781
2023-08-11T14:34:55.234Z,6827
2023-08-11T14:36:11.487Z,6836
2023-08-11T14:37:27.000Z,6881
2023-08-11T14:38:43.942Z,6928
2023-08-11T14:39:59.213Z,6956
2023-08-11T14:41:15.454Z,6983
2023-08-11T14:42:31.707Z,6982
2023-08-11T14:43:47.939Z,7021
2023-08-11T14:45:04.000Z,7103
2023-08-11T14:46:20.408Z,7101
2023-08-11T14:47:36.670Z,7178
2023-08-11T14:48:52.898Z,7229
2023-08-11T14:50:09.153Z,7287
2023-08-11T14:51:25.386Z,7297
2023-08-11T14:52:41.616Z,7393
2023-08-11T14:53:57.851Z,7523
2023-08-11T14:55:14.115Z,7556
2023-08-11T14:56:29.337Z,7636
2023-08-11T14:57:45.000Z,7691
2023-08-11T14:59:01.830Z,7783
2023-08-11T15:00:18.091Z,7882
2023-08-11T15:01:34.311Z,7969
2023-08-11T15:02:50.000Z,8015
2023-08-11T15:04:06.781Z,8066
2023-08-11T15:05:23.046Z,8171
2023-08-11T15:06:39.263Z,8217
2023-08-11T15:07:55.000Z,8169
2023-08-11T15:09:11.750Z,8223
2023-08-11T15:10:27.988Z,8217
2023-08-11T15:11:44.220Z,8198
2023-08-11T15:13:00.590Z,8187
2023-08-11T15:14:16.831Z,8101
2023-08-11T15:15:33.070Z,8075
2023-08-11T15:16:49.305Z,8042
2023-08-11T15:18:05.573Z,7963
2023-08-11T15:19:21.793Z,7859
2023-08-11T15:20:38.056Z,7870
2023-08-11T15:21:54.282Z,7881
2023-08-11T15:23:10.536Z,7809
2023-08-11T15:24:26.770Z,7790
2023-08-11T15:25:42.996Z,7724
2023-08-11T15:26:59.239Z,7723
2023-08-11T15:28:15.473Z,7622
2023-08-11T15:29:30.732Z,7585
2023-08-11T15:30:46.993Z,7510
2023-08-11T15:32:03.211Z,7563
2023-08-11T15:33:19.458Z,7530
2023-08-11T15:34:35.696Z,7463
2023-08-11T15:35:51.955Z,7417
2023-08-11T15:37:08.179Z,7387
2023-08-11T15:38:24.433Z,7399
2023-08-11T15:39:40.657Z,7440
2023-08-11T15:40:56.912Z,7433
2023-08-11T15:42:13.133Z,7440
2023-08-11T15:43:29.396Z,7399
2023-08-11T15:44:45.615Z,7351
2023-08-11T15:46:00.865Z,7361
2023-08-11T15:47:17.113Z,7310
2023-08-11T15:48:33.357Z,7350
2023-08-11T15:49:49.589Z,7323
2023-08-11T15:51:05.820Z,7275
2023-08-11T15:52:22.059Z,7313
2023-08-11T15:53:38.309Z,7267
2023-08-11T15:54:54.543Z,7281
2023-08-11T15:56:10.787Z,7246
2023-08-11T15:57:27.050Z,7267
2023-08-11T15:58:43.266Z,7287
2023-08-11T15:59:59.517Z,7229
2023-08-11T16:01:15.740Z,7219
2023-08-11T16:02:31.002Z,7140
2023-08-11T16:03:47.264Z,7201
2023-08-11T16:05:03.481Z,7137
2023-08-11T16:06:19.723Z,7142
2023-08-11T16:07:35.969Z,7063
2023-08-11T16:08:52.206Z,6982
2023-08-11T16:10:08.442Z,6997
2023-08-11T16:11:24.677Z,7013
2023-08-11T16:12:40.919Z,6993
2023-08-11T16:13:57.155Z,7048
2023-08-11T16:15:13.411Z,7040
2023-08-11T16:16:29.667Z,7067
2023-08-11T16:17:45.894Z,7079
2023-08-11T16:19:01.000Z,7107
2023-08-11T16:20:17.385Z,7057
2023-08-11T16:21:33.645Z,6987
2023-08-11T16:22:49.866Z,6995
2023-08-11T16:24:06.124Z,7109
2023-08-11T16:25:22.337Z,7146
2023-08-11T16:26:38.604Z,6690
2023-08-11T16:27:54.822Z,7277
2023-08-11T16:29:11.088Z,6209
2023-08-11T16:30:27.292Z,6714
2023-08-11T16:31:43.530Z,6744
2023-08-11T16:32:59.772Z,6755
2023-08-11T16:34:16.023Z,6673
2023-08-11T16:35:31.274Z,6599
2023-08-11T16:36:47.537Z,6971
2023-08-11T16:38:03.747Z,5944
2023-08-11T16:39:20.019Z,6529
2023-08-11T16:40:36.232Z,6466
2023-08-11T16:41:52.515Z,6437
2023-08-11T16:43:07.744Z,6379
2023-08-11T16:44:23.980Z,6342
2023-08-11T16:45:40.250Z,6244
2023-08-11T16:46:56.489Z,5871
2023-08-11T16:48:12.690Z,5751
2023-08-11T16:49:28.941Z,5920
2023-08-11T16:50:45.183Z,5846
2023-08-11T16:52:01.438Z,5628
2023-08-11T16:53:17.648Z,5673
2023-08-11T16:54:33.918Z,5628
2023-08-11T16:55:50.129Z,5945
2023-08-11T16:57:06.366Z,5283
2023-08-11T16:58:22.621Z,5623
2023-08-11T16:59:37.862Z,5713
2023-08-11T17:00:54.142Z,5679
2023-08-11T17:02:10.340Z,5466
2023-08-11T17:03:26.597Z,5257
2023-08-11T17:04:42.826Z,5243
2023-08-11T17:05:59.102Z,5266
2023-08-11T17:07:15.314Z,5214
2023-08-11T17:08:31.550Z,5888
2023-08-11T17:09:47.796Z,4568
2023-08-11T17:11:04.026Z,3269
2023-08-11T17:12:20.277Z,4445
2023-08-11T17:13:36.514Z,4361
2023-08-11T17:14:52.744Z,4986
2023-08-11T17:16:07.996Z,4104
2023-08-11T17:17:24.238Z,4957
2023-08-11T17:18:40.492Z,3752
2023-08-11T17:19:56.716Z,3922
2023-08-11T17:21:12.966Z,3723
2023-08-11T17:22:29.205Z,1926
2023-08-11T17:23:45.445Z,1870
2023-08-11T17:25:01.684Z,1706
2023-08-11T17:26:17.916Z,1757
2023-08-11T17:27:34.165Z,1660
2023-08-11T17:28:50.400Z,1147
2023-08-11T17:30:06.686Z,1153